createdAt,value
2018-12-19T00:02:13.331Z,82.20
2018-12-19T00:04:46.231Z,83.20
2018-12-19T00:07:19.265Z,80.80
2018-12-19T00:09:50.421Z,80.40
2018-12-19T00:12:21.367Z,80.00
2018-12-19T00:14:53.168Z,81.20
2018-12-19T00:17:26.091Z,82.50
2018-12-19T00:19:56.991Z,81.10
2018-12-19T00:22:27.757Z,81.50
2018-12-19T00:24:58.557Z,80.70
2018-12-19T00:27:31.325Z,80.50
2018-12-19T00:30:04.285Z,80.70
2018-12-19T00:32:37.535Z,81.50
2018-12-19T00:35:10.495Z,83.20
2018-12-19T00:37:41.415Z,84.10
2018-12-19T00:40:12.280Z,83.90
2018-12-19T00:42:43.275Z,86.00
2018-12-19T00:45:14.201Z,85.60
2018-12-19T00:47:45.074Z,85.60
2018-12-19T00:50:15.960Z,83.80
2018-12-19T00:52:46.691Z,83.10
2018-12-19T00:55:17.576Z,81.80
2018-12-19T00:57:48.361Z,82.80
2018-12-19T01:00:19.151Z,81.50
2018-12-19T01:02:49.976Z,82.70
2018-12-19T01:05:20.871Z,81.80
2018-12-19T01:07:53.076Z,81.50
2018-12-19T01:10:24.011Z,81.60
2018-12-19T01:12:54.698Z,81.20
2018-12-19T01:15:25.451Z,81.40
2018-12-19T01:17:56.107Z,80.80
2018-12-19T01:20:26.906Z,80.50
2018-12-19T01:22:59.041Z,83.00
2018-12-19T01:25:29.826Z,83.00
2018-12-19T01:28:00.506Z,82.40
2018-12-19T01:30:31.563Z,82.50
2018-12-19T01:33:02.771Z,82.80
2018-12-19T01:35:33.730Z,83.30
2018-12-19T01:38:04.692Z,83.10
2018-12-19T01:40:35.646Z,84.80
2018-12-19T01:43:06.435Z,84.10
2018-12-19T01:45:37.411Z,83.40
2018-12-19T01:48:08.171Z,83.80
2018-12-19T01:50:39.027Z,83.30
2018-12-19T01:53:09.696Z,85.20
2018-12-19T01:55:40.735Z,83.70
2018-12-19T01:58:11.566Z,82.70
2018-12-19T02:00:42.417Z,81.00
2018-12-19T02:03:13.247Z,84.00
2018-12-19T02:05:44.191Z,82.20
2018-12-19T02:08:15.116Z,82.30
2018-12-19T02:10:45.991Z,80.70
2018-12-19T02:13:16.809Z,82.80
2018-12-19T02:15:47.666Z,80.60
2018-12-19T02:18:18.401Z,81.40
2018-12-19T02:20:49.212Z,83.20
2018-12-19T02:23:19.936Z,83.80
2018-12-19T02:25:50.977Z,85.40
2018-12-19T02:28:21.970Z,86.10
2018-12-19T02:30:53.567Z,86.30
2018-12-19T02:33:25.036Z,86.20
2018-12-19T02:35:55.791Z,86.20
2018-12-19T02:38:27.723Z,86.30
2018-12-19T02:40:58.517Z,85.50
2018-12-19T02:43:30.600Z,87.10
2018-12-19T02:46:02.432Z,86.20
2018-12-19T02:48:35.974Z,85.10
2018-12-19T02:51:06.711Z,85.60
2018-12-19T02:53:37.545Z,85.90
2018-12-19T02:56:08.380Z,85.70
2018-12-19T02:58:39.190Z,85.50
2018-12-19T03:01:10.020Z,85.20
2018-12-19T03:03:40.810Z,84.30
2018-12-19T03:06:11.565Z,85.30
2018-12-19T03:08:42.506Z,85.60
2018-12-19T03:11:13.270Z,86.60
2018-12-19T03:13:46.156Z,85.20
2018-12-19T03:16:17.164Z,86.50
2018-12-19T03:18:48.000Z,86.50
2018-12-19T03:21:18.854Z,85.60
2018-12-19T03:23:49.825Z,85.00
2018-12-19T03:26:20.846Z,85.00
2018-12-19T03:28:51.739Z,84.90
2018-12-19T03:31:22.736Z,85.50
2018-12-19T03:33:54.289Z,85.60
2018-12-19T03:36:25.175Z,85.90
2018-12-19T03:38:56.485Z,85.60
2018-12-19T03:41:27.170Z,85.40
2018-12-19T03:43:58.150Z,85.70
2018-12-19T03:46:28.936Z,85.90
2018-12-19T03:48:59.825Z,85.90
2018-12-19T03:51:30.620Z,85.40
2018-12-19T03:54:01.480Z,85.70
2018-12-19T03:56:32.368Z,86.00
2018-12-19T03:59:03.175Z,85.90
2018-12-19T04:01:33.921Z,85.60
2018-12-19T04:04:04.675Z,86.00
2018-12-19T04:06:35.500Z,87.60
2018-12-19T04:09:07.911Z,87.30
2018-12-19T04:11:38.740Z,87.90
2018-12-19T04:14:09.541Z,89.90
2018-12-19T04:16:40.351Z,90.70
2018-12-19T04:19:11.097Z,90.80
2018-12-19T04:21:43.975Z,91.10
2018-12-19T04:24:14.836Z,91.10
2018-12-19T04:26:45.596Z,91.20
2018-12-19T04:29:16.609Z,91.20
2018-12-19T04:31:47.544Z,91.10
2018-12-19T04:34:18.913Z,90.70
2018-12-19T04:36:49.706Z,90.80
2018-12-19T04:39:20.651Z,91.10
2018-12-19T04:41:51.511Z,91.60
2018-12-19T04:44:22.327Z,91.80
2018-12-19T04:46:54.017Z,91.90
2018-12-19T04:49:24.756Z,91.80
2018-12-19T04:51:55.666Z,91.30
2018-12-19T04:54:27.477Z,91.70
2018-12-19T04:56:58.396Z,91.20
2018-12-19T04:59:29.282Z,91.20
2018-12-19T05:02:00.286Z,91.20
2018-12-19T05:04:31.092Z,91.20
2018-12-19T05:07:01.967Z,91.20
2018-12-19T05:09:32.917Z,91.00
2018-12-19T05:12:03.707Z,90.50
2018-12-19T05:14:34.746Z,90.40
2018-12-19T05:17:05.579Z,90.50
2018-12-19T05:19:36.427Z,90.20
2018-12-19T05:22:07.191Z,89.80
2018-12-19T05:24:38.092Z,90.00
2018-12-19T05:27:08.948Z,90.20
2018-12-19T05:29:39.817Z,90.30
2018-12-19T05:32:10.651Z,90.50
2018-12-19T05:34:41.887Z,90.80
2018-12-19T05:37:12.916Z,90.80
2018-12-19T05:39:44.058Z,91.20
2018-12-19T05:42:14.941Z,90.90
2018-12-19T05:44:45.581Z,91.00
2018-12-19T05:47:17.172Z,91.40
2018-12-19T05:49:48.387Z,91.10
2018-12-19T05:52:20.990Z,90.40
2018-12-19T05:54:51.772Z,90.70
2018-12-19T05:57:22.646Z,90.60
2018-12-19T05:59:54.232Z,91.20
2018-12-19T06:02:25.092Z,92.10
2018-12-19T06:04:55.877Z,92.70
2018-12-19T06:07:26.686Z,93.10
2018-12-19T06:09:57.557Z,93.50
2018-12-19T06:12:28.431Z,93.50
2018-12-19T06:14:59.169Z,93.20
2018-12-19T06:17:30.151Z,93.20
2018-12-19T06:20:01.077Z,92.90
2018-12-19T06:22:32.061Z,93.20
2018-12-19T06:25:02.995Z,92.70
2018-12-19T06:27:33.912Z,92.60
2018-12-19T06:30:05.096Z,92.40
2018-12-19T06:32:35.992Z,92.60
2018-12-19T06:35:07.561Z,92.60
2018-12-19T06:37:39.200Z,91.80
2018-12-19T06:40:10.706Z,91.50
2018-12-19T06:42:41.906Z,91.50
2018-12-19T06:45:12.741Z,91.10
2018-12-19T06:47:43.671Z,91.40
2018-12-19T06:50:14.486Z,91.20
2018-12-19T06:52:45.767Z,91.30
2018-12-19T06:55:16.776Z,90.70
2018-12-19T06:57:47.866Z,90.60
2018-12-19T07:00:19.165Z,90.60
2018-12-19T07:02:50.151Z,90.20
2018-12-19T07:05:21.062Z,90.00
2018-12-19T07:07:52.076Z,90.00
2018-12-19T07:10:23.106Z,89.60
2018-12-19T07:12:55.161Z,89.40
2018-12-19T07:15:28.376Z,89.70
2018-12-19T07:18:00.146Z,89.20
2018-12-19T07:20:31.001Z,87.60
2018-12-19T07:23:02.011Z,88.60
2018-12-19T07:25:33.286Z,88.20
2018-12-19T07:28:04.346Z,87.10
2018-12-19T07:30:35.326Z,88.40
2018-12-19T07:33:06.264Z,89.30
2018-12-19T07:35:37.586Z,88.30
2018-12-19T07:38:08.641Z,88.60
2018-12-19T07:40:45.453Z,89.00
2018-12-19T07:43:12.916Z,90.10
2018-12-19T07:45:43.851Z,88.50
2018-12-19T07:48:15.271Z,89.70
2018-12-19T07:50:46.206Z,88.10
2018-12-19T07:53:18.341Z,90.10
2018-12-19T07:55:49.691Z,90.40
2018-12-19T07:58:20.906Z,90.80
2018-12-19T08:00:51.876Z,90.90
2018-12-19T08:03:23.916Z,91.40
2018-12-19T08:05:54.907Z,90.70
2018-12-19T08:08:26.066Z,90.60
2018-12-19T08:10:57.111Z,90.50
2018-12-19T08:13:28.466Z,90.90
2018-12-19T08:15:59.346Z,90.50
2018-12-19T08:18:30.561Z,90.20
2018-12-19T08:21:01.536Z,90.20
2018-12-19T08:23:32.596Z,90.60
2018-12-19T08:26:03.471Z,91.10
2018-12-19T08:28:34.645Z,91.10
2018-12-19T08:31:05.708Z,91.10
2018-12-19T08:33:36.846Z,91.20
2018-12-19T08:36:08.336Z,91.00
2018-12-19T08:38:39.486Z,91.40
2018-12-19T08:41:10.563Z,91.30
2018-12-19T08:43:41.791Z,91.40
2018-12-19T08:46:14.622Z,91.50
2018-12-19T08:48:45.941Z,91.50
2018-12-19T08:51:17.017Z,92.00
2018-12-19T08:53:48.106Z,91.90
2018-12-19T08:56:19.077Z,92.10
2018-12-19T08:58:50.344Z,92.10
2018-12-19T09:01:21.611Z,91.50
2018-12-19T09:03:52.779Z,92.20
2018-12-19T09:06:23.626Z,91.90
2018-12-19T09:08:55.356Z,92.20
2018-12-19T09:11:26.782Z,91.30
2018-12-19T09:13:57.916Z,90.80
2018-12-19T09:16:29.181Z,91.30
2018-12-19T09:19:00.101Z,91.30
2018-12-19T09:21:31.045Z,91.70
2018-12-19T09:24:02.311Z,91.50
2018-12-19T09:26:33.391Z,92.30
2018-12-19T09:29:04.216Z,92.30
2018-12-19T09:31:35.022Z,92.50
2018-12-19T09:34:06.578Z,92.10
2018-12-19T09:36:37.945Z,91.50
2018-12-19T09:39:09.095Z,91.90
2018-12-19T09:41:40.333Z,91.60
2018-12-19T09:44:11.439Z,92.10
2018-12-19T09:46:42.590Z,92.50
2018-12-19T09:49:14.123Z,92.00
2018-12-19T09:51:45.117Z,91.90
2018-12-19T09:54:16.500Z,91.90
2018-12-19T09:56:47.757Z,92.30
2018-12-19T09:59:18.683Z,92.40
2018-12-19T10:01:49.531Z,92.30
2018-12-19T10:04:20.616Z,91.60
2018-12-19T10:06:51.592Z,91.40
2018-12-19T10:09:22.936Z,90.90
2018-12-19T10:11:54.337Z,91.40
2018-12-19T10:14:25.410Z,91.20
2018-12-19T10:16:56.336Z,90.80
2018-12-19T10:19:27.407Z,92.10
2018-12-19T10:21:58.410Z,91.10
2018-12-19T10:24:34.266Z,90.90
2018-12-19T10:27:05.220Z,90.70
2018-12-19T10:29:36.364Z,91.20
2018-12-19T10:32:07.260Z,91.00
2018-12-19T10:34:40.516Z,91.10
2018-12-19T10:37:12.066Z,91.10
2018-12-19T10:39:43.163Z,91.00
2018-12-19T10:42:14.255Z,91.00
2018-12-19T10:44:45.450Z,92.00
2018-12-19T10:47:17.608Z,90.90
2018-12-19T10:49:48.680Z,91.70
2018-12-19T10:52:19.755Z,90.40
2018-12-19T10:54:50.796Z,91.50
2018-12-19T10:57:21.892Z,91.40
2018-12-19T10:59:53.047Z,91.30
2018-12-19T11:02:24.266Z,91.00
2018-12-19T11:04:55.371Z,91.10
2018-12-19T11:07:26.276Z,91.30
2018-12-19T11:09:57.405Z,90.40
2018-12-19T11:12:28.626Z,91.00
2018-12-19T11:14:59.956Z,91.20
2018-12-19T11:17:30.991Z,90.70
2018-12-19T11:20:02.081Z,90.90
2018-12-19T11:22:33.220Z,90.90
2018-12-19T11:25:04.300Z,91.50
2018-12-19T11:27:35.260Z,91.80
2018-12-19T11:30:07.933Z,91.90
2018-12-19T11:32:39.146Z,92.30
2018-12-19T11:35:10.506Z,91.80
2018-12-19T11:37:42.353Z,92.60
2018-12-19T11:40:13.716Z,92.50
2018-12-19T11:42:45.426Z,92.30
2018-12-19T11:45:16.856Z,92.10
2018-12-19T11:47:48.326Z,92.50
2018-12-19T11:50:19.811Z,92.10
2018-12-19T11:52:51.116Z,92.20
2018-12-19T11:55:22.566Z,91.80
2018-12-19T11:57:53.905Z,92.50
2018-12-19T12:00:25.440Z,92.00
2018-12-19T12:02:56.786Z,92.20
2018-12-19T12:05:27.876Z,92.50
2018-12-19T12:07:58.892Z,92.20
2018-12-19T12:10:30.005Z,92.00
2018-12-19T12:13:01.185Z,92.20
2018-12-19T12:15:32.450Z,91.60
2018-12-19T12:18:03.386Z,92.00
2018-12-19T12:20:34.358Z,91.70
2018-12-19T12:23:05.326Z,92.00
2018-12-19T12:25:37.702Z,91.80
2018-12-19T12:28:08.778Z,92.50
2018-12-19T12:30:39.926Z,91.90
2018-12-19T12:33:10.981Z,92.00
2018-12-19T12:35:42.287Z,92.20
2018-12-19T12:38:13.661Z,92.30
2018-12-19T12:40:44.816Z,92.30
2018-12-19T12:43:15.991Z,91.70
2018-12-19T12:45:47.047Z,92.70
2018-12-19T12:48:18.201Z,92.30
2018-12-19T12:50:49.367Z,92.60
2018-12-19T12:53:20.333Z,92.40
2018-12-19T12:55:51.401Z,92.50
2018-12-19T12:58:22.352Z,92.10
2018-12-19T13:00:53.427Z,92.70
2018-12-19T13:03:24.461Z,92.50
2018-12-19T13:05:57.710Z,92.40
2018-12-19T13:08:29.722Z,93.20
2018-12-19T13:11:00.847Z,93.10
2018-12-19T13:13:31.951Z,93.10
2018-12-19T13:16:03.106Z,93.30
2018-12-19T13:18:34.167Z,93.40
2018-12-19T13:21:05.286Z,93.60
2018-12-19T13:23:36.312Z,93.90
2018-12-19T13:26:07.512Z,93.90
2018-12-19T13:28:38.693Z,94.50
2018-12-19T13:31:09.732Z,94.90
2018-12-19T13:33:41.473Z,94.80
2018-12-19T13:36:12.846Z,94.70
2018-12-19T13:38:44.953Z,94.90
2018-12-19T13:41:16.381Z,94.90
2018-12-19T13:43:47.701Z,94.80
2018-12-19T13:46:18.906Z,95.10
2018-12-19T13:48:49.758Z,95.20
2018-12-19T13:51:20.831Z,95.30
2018-12-19T13:53:51.748Z,95.50
2018-12-19T13:56:22.796Z,95.50
2018-12-19T13:58:54.067Z,95.50
2018-12-19T14:01:25.172Z,96.00
2018-12-19T14:03:56.092Z,96.20
2018-12-19T14:06:27.307Z,95.90
2018-12-19T14:08:58.238Z,96.10
2018-12-19T14:11:29.362Z,96.60
2018-12-19T14:14:00.532Z,96.90
2018-12-19T14:16:31.721Z,96.80
2018-12-19T14:19:02.677Z,96.80
2018-12-19T14:21:33.806Z,96.90
2018-12-19T14:24:04.776Z,97.20
2018-12-19T14:26:35.726Z,97.30
2018-12-19T14:29:06.992Z,97.50
2018-12-19T14:31:38.065Z,97.70
2018-12-19T14:34:09.017Z,98.00
2018-12-19T14:36:40.331Z,97.80
2018-12-19T14:39:11.751Z,98.20
2018-12-19T14:41:42.831Z,98.30
2018-12-19T14:44:14.006Z,98.50
2018-12-19T14:46:45.186Z,98.80
2018-12-19T14:49:16.587Z,98.90
2018-12-19T14:51:47.916Z,99.10
2018-12-19T14:54:18.869Z,99.40
2018-12-19T14:56:49.886Z,99.40
2018-12-19T14:59:20.918Z,99.40
2018-12-19T15:01:52.208Z,99.10
2018-12-19T15:04:23.156Z,98.70
2018-12-19T15:06:54.231Z,98.50
2018-12-19T15:09:25.548Z,98.00
2018-12-19T15:11:56.536Z,98.30
2018-12-19T15:14:27.521Z,98.50
2018-12-19T15:16:58.651Z,98.60
2018-12-19T15:19:29.556Z,98.80
2018-12-19T15:22:00.557Z,98.90
2018-12-19T15:24:31.486Z,98.80
2018-12-19T15:27:02.621Z,99.20
2018-12-19T15:29:33.521Z,98.60
2018-12-19T15:32:04.601Z,98.60
2018-12-19T15:34:36.828Z,98.40
2018-12-19T15:37:07.866Z,98.30
2018-12-19T15:39:40.614Z,98.20
2018-12-19T15:42:11.556Z,98.20
2018-12-19T15:44:42.857Z,98.10
2018-12-19T15:47:14.128Z,97.70
2018-12-19T15:49:45.251Z,98.40
2018-12-19T15:52:16.355Z,97.80
2018-12-19T15:54:47.606Z,97.60
2018-12-19T15:57:18.726Z,97.40
2018-12-19T15:59:49.755Z,97.60
2018-12-19T16:02:20.831Z,98.00
2018-12-19T16:04:51.936Z,98.30
2018-12-19T16:07:23.055Z,98.80
2018-12-19T16:09:54.175Z,98.90
2018-12-19T16:12:27.265Z,99.90
2018-12-19T16:14:58.300Z,99.90
2018-12-19T16:17:29.530Z,99.90
2018-12-19T16:20:00.546Z,99.90
2018-12-19T16:22:31.589Z,99.90
2018-12-19T16:25:02.566Z,99.90
2018-12-19T16:27:33.500Z,99.90
2018-12-19T16:30:04.776Z,99.90
2018-12-19T16:32:35.802Z,99.90
2018-12-19T16:35:07.206Z,99.90
2018-12-19T16:37:38.215Z,99.90
2018-12-19T16:40:09.340Z,99.90
2018-12-19T16:42:45.870Z,99.90
2018-12-19T16:45:14.150Z,99.90
2018-12-19T16:47:46.310Z,99.90
2018-12-19T16:50:17.177Z,99.90
2018-12-19T16:52:48.147Z,99.90
2018-12-19T16:55:19.155Z,99.90
2018-12-19T16:57:50.225Z,99.90
2018-12-19T17:00:21.288Z,99.90
2018-12-19T17:02:52.265Z,99.90
2018-12-19T17:05:23.106Z,99.90
2018-12-19T17:07:54.065Z,99.90
2018-12-19T17:10:25.081Z,99.90
2018-12-19T17:12:56.966Z,99.90
2018-12-19T17:15:28.289Z,99.90
2018-12-19T17:17:59.215Z,99.90
2018-12-19T17:20:30.131Z,99.90
2018-12-19T17:23:01.131Z,99.90
2018-12-19T17:25:32.000Z,99.90
2018-12-19T17:28:03.017Z,99.90
2018-12-19T17:30:34.091Z,99.90
2018-12-19T17:33:05.332Z,99.90
2018-12-19T17:35:37.361Z,99.90
2018-12-19T17:38:08.376Z,99.90
2018-12-19T17:40:39.786Z,99.90
2018-12-19T17:43:10.756Z,99.90
2018-12-19T17:45:41.806Z,99.90
2018-12-19T17:48:12.872Z,99.90
2018-12-19T17:50:43.816Z,99.90
2018-12-19T17:53:14.822Z,99.90
2018-12-19T17:55:45.675Z,99.90
2018-12-19T17:58:16.735Z,99.90
2018-12-19T18:00:47.676Z,99.90
2018-12-19T18:03:18.841Z,99.90
2018-12-19T18:05:49.736Z,99.90
2018-12-19T18:08:20.770Z,99.90
2018-12-19T18:10:51.736Z,99.90
2018-12-19T18:13:22.776Z,99.90
2018-12-19T18:15:53.936Z,99.90
2018-12-19T18:18:24.947Z,99.90
2018-12-19T18:20:55.761Z,99.90
2018-12-19T18:23:26.737Z,99.90
2018-12-19T18:25:58.294Z,99.90
2018-12-19T18:28:29.244Z,99.90
2018-12-19T18:31:00.112Z,99.90
2018-12-19T18:33:31.191Z,99.90
2018-12-19T18:36:02.071Z,99.90
2018-12-19T18:38:33.192Z,99.90
2018-12-19T18:41:04.477Z,99.90
2018-12-19T18:43:35.637Z,99.90
2018-12-19T18:46:06.757Z,99.90
2018-12-19T18:48:38.207Z,99.90
2018-12-19T18:51:09.058Z,99.90
2018-12-19T18:53:40.037Z,99.90
2018-12-19T18:56:11.022Z,99.90
2018-12-19T18:58:41.947Z,99.90
2018-12-19T19:01:13.127Z,99.90
2018-12-19T19:03:44.206Z,99.90
2018-12-19T19:06:15.144Z,99.90
2018-12-19T19:08:46.774Z,99.90
2018-12-19T19:11:17.893Z,99.90
2018-12-19T19:13:48.819Z,99.90
2018-12-19T19:16:19.827Z,99.90
2018-12-19T19:18:50.847Z,99.90
2018-12-19T19:21:21.769Z,99.90
2018-12-19T19:23:52.739Z,99.90
2018-12-19T19:26:23.587Z,99.90
2018-12-19T19:29:00.963Z,99.90
2018-12-19T19:31:34.443Z,99.90
2018-12-19T19:34:05.407Z,99.90
2018-12-19T19:36:36.230Z,99.90
2018-12-19T19:39:08.990Z,99.90
2018-12-19T19:41:40.327Z,99.90
2018-12-19T19:44:11.264Z,99.90
2018-12-19T19:46:43.147Z,99.90
2018-12-19T19:49:14.163Z,99.90
2018-12-19T19:51:45.059Z,99.90
2018-12-19T19:54:17.091Z,99.90
2018-12-19T19:56:48.168Z,99.90
2018-12-19T19:59:19.164Z,99.90
2018-12-19T20:01:50.072Z,99.90
2018-12-19T20:04:21.018Z,99.90
2018-12-19T20:06:52.008Z,99.90
2018-12-19T20:09:23.099Z,99.90
2018-12-19T20:11:53.989Z,99.90
2018-12-19T20:14:25.259Z,99.90
2018-12-19T20:17:03.078Z,99.40
2018-12-19T20:19:34.164Z,99.30
2018-12-19T20:22:05.216Z,99.50
2018-12-19T20:24:36.303Z,99.50
2018-12-19T20:27:07.293Z,99.70
2018-12-19T20:29:38.269Z,99.60
2018-12-19T20:32:09.193Z,98.70
2018-12-19T20:34:40.178Z,99.20
2018-12-19T20:37:11.129Z,99.90
2018-12-19T20:39:42.198Z,99.60
2018-12-19T20:42:13.689Z,99.90
2018-12-19T20:44:44.753Z,99.70
2018-12-19T20:47:15.834Z,99.90
2018-12-19T20:49:46.828Z,99.90
2018-12-19T20:52:17.990Z,99.90
2018-12-19T20:54:49.583Z,99.90
2018-12-19T20:57:20.869Z,99.90
2018-12-19T20:59:53.183Z,99.90
2018-12-19T21:02:24.042Z,99.90
2018-12-19T21:04:55.138Z,99.50
2018-12-19T21:07:26.158Z,97.50
2018-12-19T21:09:57.278Z,98.00
2018-12-19T21:12:28.295Z,97.30
2018-12-19T21:14:59.218Z,97.30
2018-12-19T21:17:35.423Z,97.40
2018-12-19T21:20:06.943Z,97.80
2018-12-19T21:22:37.748Z,98.40
2018-12-19T21:25:09.825Z,98.20
2018-12-19T21:27:40.662Z,98.10
2018-12-19T21:30:12.243Z,98.30
2018-12-19T21:32:49.412Z,98.20
2018-12-19T21:35:20.613Z,98.10
2018-12-19T21:37:51.745Z,97.90
2018-12-19T21:40:22.593Z,97.80
2018-12-19T21:42:54.428Z,97.30
2018-12-19T21:45:25.529Z,97.30
2018-12-19T21:47:56.688Z,97.80
2018-12-19T21:50:27.935Z,97.60
2018-12-19T21:52:58.933Z,97.20
2018-12-19T21:55:30.008Z,97.00
2018-12-19T21:58:02.561Z,96.50
2018-12-19T22:00:41.322Z,96.50
2018-12-19T22:03:14.622Z,96.40
2018-12-19T22:05:45.616Z,96.40
2018-12-19T22:08:16.560Z,96.50
2018-12-19T22:10:50.423Z,96.50
2018-12-19T22:13:21.393Z,96.40
2018-12-19T22:15:52.445Z,96.40
2018-12-19T22:18:28.508Z,96.60
2018-12-19T22:20:59.663Z,97.00
2018-12-19T22:23:30.609Z,97.40
2018-12-19T22:26:01.627Z,97.20
2018-12-19T22:28:32.505Z,97.30
2018-12-19T22:31:04.323Z,97.10
2018-12-19T22:33:35.259Z,97.60
2018-12-19T22:36:06.343Z,97.80
2018-12-19T22:38:37.155Z,97.70
2018-12-19T22:41:08.281Z,97.60
2018-12-19T22:43:39.633Z,97.40
2018-12-19T22:46:10.688Z,97.90
2018-12-19T22:48:42.892Z,97.90
2018-12-19T22:51:13.907Z,97.60
2018-12-19T22:53:44.726Z,97.90
2018-12-19T22:56:15.848Z,97.90
2018-12-19T22:58:46.869Z,98.30
2018-12-19T23:01:22.818Z,98.40
2018-12-19T23:04:07.994Z,98.30
2018-12-19T23:06:39.148Z,98.30
2018-12-19T23:09:10.263Z,98.30
2018-12-19T23:11:41.294Z,98.20
2018-12-19T23:14:15.551Z,98.40
2018-12-19T23:16:51.707Z,98.20
2018-12-19T23:19:28.462Z,97.70
2018-12-19T23:22:05.578Z,97.10
2018-12-19T23:24:42.187Z,96.40
2018-12-19T23:27:15.255Z,95.70
2018-12-19T23:29:47.225Z,96.00
2018-12-19T23:32:22.294Z,95.50
2018-12-19T23:34:53.092Z,94.60
2018-12-19T23:37:24.107Z,94.80
2018-12-19T23:39:55.002Z,95.10
2018-12-19T23:42:25.934Z,95.30
2018-12-19T23:44:57.162Z,95.40
2018-12-19T23:47:28.238Z,95.40
2018-12-19T23:49:59.222Z,95.50
2018-12-19T23:52:30.222Z,95.30
2018-12-19T23:55:01.320Z,95.30
2018-12-19T23:57:32.389Z,94.90
